Aviation Digital Data Service (ADDS)

Output produced by METARs form (1705 UTC 24 July 2014)
found at http://www.aviationweather.gov/adds/metars/
 
KROW 241651Z 00000KT 10SM CLR 32/13 A3019 RMK AO2 SLP151 T03220128
KROW 241551Z VRB03KT 10SM CLR 30/13 A3021 RMK AO2 SLP155 T03000133
KROW 241451Z 15003KT 10SM CLR 28/13 A3022 RMK AO2 SLP162 T02780128 51008
KROW 241351Z 00000KT 10SM CLR 25/13 A3022 RMK AO2 SLP162 T02500128
KROW 241251Z 00000KT 10SM CLR 21/13 A3022 RMK AO2 SLP160 T02110128
KROW 241151Z 27003KT 10SM CLR 22/12 A3020 RMK AO2 SLP152 T02220117 10267 20211 53003
KROW 241051Z AUTO 00000KT 10SM CLR 21/12 A3019 RMK AO2 SLP152 T02110122
KROW 240951Z AUTO 00000KT 10SM CLR 23/12 A3018 RMK AO2 SLP147 T02280122
KROW 240851Z AUTO 28003KT 10SM CLR 23/12 A3019 RMK AO2 SLP148 T02330117 58007
KROW 240751Z AUTO 26006KT 10SM CLR 24/12 A3020 RMK AO2 SLP152 T02440122
KROW 240651Z AUTO 14005KT 10SM CLR 26/13 A3021 RMK AO2 SLP156 T02560128 403670228
KROW 240551Z AUTO 13006KT 10SM CLR 27/12 A3021 RMK AO2 SLP156 T02670122 10361 20261 51014
KROW 240451Z AUTO 12006KT 10SM CLR 27/12 A3019 RMK AO2 SLP151 T02670117
KROW 240351Z AUTO 12006KT 10SM CLR 28/11 A3018 RMK AO2 SLP147 T02830106
KROW 240251Z AUTO 11006KT 10SM CLR 29/11 A3016 RMK AO2 SLP142 T02940106 53004
KROW 240151Z 11006KT 10SM CLR 32/10 A3014 RMK AO2 SLP134 T03220100
KROW 240051Z 13008KT 10SM CLR 35/08 A3014 RMK AO2 SLP132 T03500083
KROW 232351Z 12010KT 10SM CLR 36/08 A3015 RMK AO2 SLP135 T03610083 10367 20322 56017
KROW 232251Z 15013G16KT 10SM CLR 36/09 A3016 RMK AO2 SLP140 T03560094
KROW 232151Z VRB06KT 10SM FEW090 36/11 A3019 RMK AO2 SLP146 T03560106
KROW 232051Z 19007G15KT 10SM CLR 35/13 A3021 RMK AO2 SLP153 T03500128 58015
KROW 231951Z 00000KT 10SM CLR 34/14 A3023 RMK AO2 SLP161 T03440139
KROW 231851Z 10SM CLR 33/14 A3025 RMK AO2 SLP169 T03280144
KROW 231751Z 16007KT 10SM FEW060 32/15 A3026 RMK AO2 SLP169 T03220150 10328 20228 58006
KROW 241139Z 2412/2512 VRB06KT P6SM FEW200 
     FM241600 15010KT P6SM FEW100 
     FM250200 VRB06KT P6SM FEW150